createdAt,value
2017-04-30T00:00:52.018Z,5.6
2017-04-30T00:01:52.044Z,5.6
2017-04-30T00:02:52.387Z,5.59
2017-04-30T00:03:52.113Z,5.49
2017-04-30T00:04:52.183Z,5.59
2017-04-30T00:05:52.174Z,5.49
2017-04-30T00:06:52.212Z,5.48
2017-04-30T00:07:52.246Z,5.48
2017-04-30T00:08:52.588Z,5.5
2017-04-30T00:09:52.609Z,5.5
2017-04-30T00:10:52.340Z,5.46
2017-04-30T00:11:52.373Z,5.37
2017-04-30T00:12:52.709Z,5.4
2017-04-30T00:13:52.437Z,5.35
2017-04-30T00:14:52.787Z,5.35
2017-04-30T00:15:52.812Z,5.35
2017-04-30T00:16:52.536Z,5.27
2017-04-30T00:17:52.566Z,5.34
2017-04-30T00:18:52.597Z,5.31
2017-04-30T00:19:52.632Z,5.25
2017-04-30T00:20:52.663Z,5.16
2017-04-30T00:21:52.696Z,5.13
2017-04-30T00:22:53.040Z,5.13
2017-04-30T00:23:53.064Z,5.13
2017-04-30T00:24:52.793Z,5.14
2017-04-30T00:25:52.835Z,5.1
2017-04-30T00:26:52.861Z,5.13
2017-04-30T00:27:52.890Z,5.05
2017-04-30T00:28:53.240Z,5.13
2017-04-30T00:29:52.960Z,5.1
2017-04-30T00:30:53.300Z,4.99
2017-04-30T00:31:53.324Z,5.05
2017-04-30T00:32:53.084Z,5.05
2017-04-30T00:33:53.398Z,4.95
2017-04-30T00:34:53.428Z,5.07
2017-04-30T00:35:53.157Z,4.96
2017-04-30T00:36:53.488Z,5.04
2017-04-30T00:37:53.523Z,5.05
2017-04-30T00:38:53.243Z,5.05
2017-04-30T00:39:53.274Z,4.96
2017-04-30T00:40:53.308Z,4.99
2017-04-30T00:41:53.346Z,5.01
2017-04-30T00:42:53.678Z,4.94
2017-04-30T00:43:53.717Z,4.99
2017-04-30T00:44:53.436Z,4.96
2017-04-30T00:45:53.786Z,4.92
2017-04-30T00:46:53.497Z,5.01
2017-04-30T00:47:53.847Z,4.92
2017-04-30T00:48:53.569Z,4.96
2017-04-30T00:49:53.910Z,4.94
2017-04-30T00:50:53.634Z,4.91
2017-04-30T00:51:53.974Z,4.86
2017-04-30T00:52:53.690Z,4.89
2017-04-30T00:53:53.727Z,4.89
2017-04-30T00:54:53.754Z,4.84
2017-04-30T00:55:53.790Z,4.89
2017-04-30T00:56:53.833Z,4.79
2017-04-30T00:57:54.158Z,4.8
2017-04-30T00:58:53.888Z,4.84
2017-04-30T00:59:54.231Z,4.83
2017-04-30T01:00:53.947Z,4.72
2017-04-30T01:01:53.982Z,4.76
2017-04-30T01:02:54.021Z,4.7
2017-04-30T01:03:54.049Z,4.69
2017-04-30T01:04:54.386Z,4.75
2017-04-30T01:05:54.114Z,4.72
2017-04-30T01:06:54.450Z,4.77
2017-04-30T01:07:54.180Z,4.77
2017-04-30T01:08:54.212Z,4.62
2017-04-30T01:09:54.545Z,4.62
2017-04-30T01:10:54.272Z,4.65
2017-04-30T01:11:54.327Z,4.65
2017-04-30T01:12:54.641Z,4.76
2017-04-30T01:13:54.676Z,4.76
2017-04-30T01:14:54.401Z,4.67
2017-04-30T01:15:54.424Z,4.76
2017-04-30T01:16:54.467Z,4.72
2017-04-30T01:17:54.493Z,4.67
2017-04-30T01:18:54.532Z,4.69
2017-04-30T01:19:54.561Z,4.62
2017-04-30T01:20:54.590Z,4.67
2017-04-30T01:21:54.933Z,4.67
2017-04-30T01:22:54.961Z,4.64
2017-04-30T01:23:54.690Z,4.64
2017-04-30T01:24:55.056Z,4.65
2017-04-30T01:25:54.752Z,4.64
2017-04-30T01:26:54.794Z,4.7
2017-04-30T01:27:54.812Z,4.77
2017-04-30T01:28:55.156Z,4.65
2017-04-30T01:29:54.879Z,4.77
2017-04-30T01:30:54.904Z,4.7
2017-04-30T01:31:54.939Z,4.76
2017-04-30T01:32:54.976Z,4.67
2017-04-30T01:33:55.011Z,4.75
2017-04-30T01:34:55.346Z,4.75
2017-04-30T01:35:55.074Z,4.73
2017-04-30T01:36:55.407Z,4.84
2017-04-30T01:37:55.442Z,4.7
2017-04-30T01:38:55.469Z,4.65
2017-04-30T01:39:55.505Z,4.83
2017-04-30T01:40:55.236Z,4.75
2017-04-30T01:41:55.261Z,4.79
2017-04-30T01:42:55.599Z,4.83
2017-04-30T01:43:55.634Z,4.75
2017-04-30T01:44:55.663Z,4.65
2017-04-30T01:45:55.692Z,4.7
2017-04-30T01:46:55.414Z,4.67
2017-04-30T01:47:55.452Z,4.77
2017-04-30T01:48:56.098Z,4.75
2017-04-30T01:49:55.517Z,4.77
2017-04-30T01:50:55.863Z,4.67
2017-04-30T01:51:55.573Z,4.75
2017-04-30T01:52:55.918Z,4.72
2017-04-30T01:53:55.947Z,4.8
2017-04-30T01:54:55.671Z,4.7
2017-04-30T01:55:55.698Z,4.72
2017-04-30T01:56:56.037Z,4.65
2017-04-30T01:57:56.067Z,4.72
2017-04-30T01:58:55.830Z,4.72
2017-04-30T01:59:55.826Z,4.64
2017-04-30T02:00:55.855Z,4.72
2017-04-30T02:01:55.892Z,4.69
2017-04-30T02:02:56.231Z,4.72
2017-04-30T02:03:55.949Z,4.75
2017-04-30T02:04:55.987Z,4.72
2017-04-30T02:05:56.015Z,4.61
2017-04-30T02:06:56.353Z,4.57
2017-04-30T02:07:56.389Z,4.58
2017-04-30T02:08:56.425Z,4.55
2017-04-30T02:09:56.143Z,4.46
2017-04-30T02:10:56.478Z,4.55
2017-04-30T02:11:56.208Z,4.52
2017-04-30T02:12:56.558Z,4.46
2017-04-30T02:13:56.581Z,4.61
2017-04-30T02:14:56.611Z,4.47
2017-04-30T02:15:56.362Z,4.54
2017-04-30T02:16:56.362Z,4.36
2017-04-30T02:17:56.705Z,4.47
2017-04-30T02:18:56.430Z,4.42
2017-04-30T02:19:56.770Z,4.32
2017-04-30T02:20:56.486Z,4.37
2017-04-30T02:21:56.828Z,4.28
2017-04-30T02:22:56.557Z,4.32
2017-04-30T02:23:56.583Z,4.25
2017-04-30T02:24:56.620Z,4.19
2017-04-30T02:25:56.652Z,4.26
2017-04-30T02:26:56.682Z,4.19
2017-04-30T02:27:56.716Z,4.26
2017-04-30T02:28:57.049Z,4.25
2017-04-30T02:29:56.774Z,4.12
2017-04-30T02:30:56.808Z,4.15
2017-04-30T02:31:56.836Z,4.15
2017-04-30T02:32:57.180Z,4.16
2017-04-30T02:33:56.899Z,4.12
2017-04-30T02:34:56.935Z,4.14
2017-04-30T02:35:57.274Z,4.15
2017-04-30T02:36:57.306Z,4.1
2017-04-30T02:37:57.334Z,4.15
2017-04-30T02:38:57.376Z,4.07
2017-04-30T02:39:57.400Z,4.03
2017-04-30T02:40:57.121Z,4.04
2017-04-30T02:41:57.150Z,4.14
2017-04-30T02:42:57.496Z,4.07
2017-04-30T02:43:57.739Z,4.06
2017-04-30T02:44:57.249Z,4.12
2017-04-30T02:45:57.278Z,3.97
2017-04-30T02:46:57.614Z,3.98
2017-04-30T02:47:57.655Z,4.04
2017-04-30T02:48:57.683Z,4.06
2017-04-30T02:49:57.403Z,3.94
2017-04-30T02:50:57.736Z,4.03
2017-04-30T02:51:57.466Z,4.1
2017-04-30T02:52:57.813Z,3.92
2017-04-30T02:53:57.842Z,3.98
2017-04-30T02:54:57.870Z,3.96
2017-04-30T02:55:57.593Z,4.01
2017-04-30T02:56:57.929Z,4
2017-04-30T02:57:57.657Z,3.97
2017-04-30T02:58:57.996Z,3.94
2017-04-30T02:59:57.721Z,3.88
2017-04-30T03:00:57.750Z,3.89
2017-04-30T03:01:57.780Z,3.88
2017-04-30T03:02:57.814Z,3.76
2017-04-30T03:03:58.150Z,3.85
2017-04-30T03:04:58.184Z,3.9
2017-04-30T03:05:57.907Z,3.85
2017-04-30T03:06:57.934Z,3.82
2017-04-30T03:07:58.278Z,3.8
2017-04-30T03:08:57.997Z,3.83
2017-04-30T03:09:58.337Z,3.78
2017-04-30T03:10:58.066Z,3.75
2017-04-30T03:11:58.091Z,3.75
2017-04-30T03:12:58.737Z,3.76
2017-04-30T03:13:58.159Z,3.78
2017-04-30T03:14:58.489Z,3.8
2017-04-30T03:15:58.215Z,3.78
2017-04-30T03:16:58.551Z,3.79
2017-04-30T03:17:58.589Z,3.78
2017-04-30T03:18:58.624Z,3.78
2017-04-30T03:19:58.649Z,3.75
2017-04-30T03:20:58.679Z,3.75
2017-04-30T03:21:58.715Z,3.7
2017-04-30T03:22:58.429Z,3.76
2017-04-30T03:23:58.481Z,3.72
2017-04-30T03:24:58.804Z,3.68
2017-04-30T03:25:58.558Z,3.82
2017-04-30T03:26:58.861Z,3.68
2017-04-30T03:27:58.588Z,3.75
2017-04-30T03:28:58.619Z,3.67
2017-04-30T03:29:58.652Z,3.67
2017-04-30T03:30:58.676Z,3.67
2017-04-30T03:31:58.715Z,3.68
2017-04-30T03:32:59.054Z,3.68
2017-04-30T03:33:59.120Z,3.79
2017-04-30T03:34:58.808Z,3.65
2017-04-30T03:35:58.848Z,3.65
2017-04-30T03:36:59.183Z,3.67
2017-04-30T03:37:59.204Z,3.7
2017-04-30T03:38:59.234Z,3.64
2017-04-30T03:39:58.964Z,3.71
2017-04-30T03:40:59.299Z,3.72
2017-04-30T03:41:59.328Z,3.67
2017-04-30T03:42:59.055Z,3.53
2017-04-30T03:43:59.395Z,3.6
2017-04-30T03:44:59.117Z,3.61
2017-04-30T03:45:59.147Z,3.61
2017-04-30T03:46:59.491Z,3.62
2017-04-30T03:47:59.521Z,3.67
2017-04-30T03:48:59.237Z,3.68
2017-04-30T03:49:59.581Z,3.65
2017-04-30T03:50:59.300Z,3.78
2017-04-30T03:51:59.645Z,3.88
2017-04-30T03:52:59.671Z,3.94
2017-04-30T03:53:59.703Z,4.01
2017-04-30T03:54:59.729Z,4.22
2017-04-30T03:55:59.455Z,4.33
2017-04-30T03:56:59.488Z,4.55
2017-04-30T03:57:59.836Z,4.64
2017-04-30T03:58:59.865Z,4.84
2017-04-30T03:59:59.592Z,4.98
2017-04-30T04:00:59.917Z,5.17
2017-04-30T04:01:59.643Z,5.31
2017-04-30T04:02:59.992Z,5.55
2017-04-30T04:03:59.717Z,5.77
2017-04-30T04:04:59.737Z,6.06
2017-04-30T04:05:59.774Z,6.28
2017-04-30T04:06:59.802Z,6.38
2017-04-30T04:08:00.145Z,6.61
2017-04-30T04:09:00.179Z,6.73
2017-04-30T04:10:00.208Z,6.73
2017-04-30T04:10:59.930Z,6.77
2017-04-30T04:11:59.964Z,6.79
2017-04-30T04:13:00.306Z,6.72
2017-04-30T04:14:00.339Z,6.58
2017-04-30T04:15:00.300Z,6.65
2017-04-30T04:16:00.093Z,6.46
2017-04-30T04:17:00.437Z,6.32
2017-04-30T04:18:00.470Z,6.11
2017-04-30T04:19:00.194Z,6
2017-04-30T04:20:00.545Z,5.91
2017-04-30T04:21:00.258Z,5.75
2017-04-30T04:22:00.598Z,5.63
2017-04-30T04:23:00.631Z,5.45
2017-04-30T04:24:00.666Z,5.37
2017-04-30T04:25:00.699Z,5.31
2017-04-30T04:26:00.418Z,5.2
2017-04-30T04:27:00.461Z,5.05
2017-04-30T04:28:00.799Z,5.01
2017-04-30T04:29:00.834Z,4.95
2017-04-30T04:30:00.859Z,4.91
2017-04-30T04:31:00.583Z,4.91
2017-04-30T04:32:00.613Z,4.86
2017-04-30T04:33:00.956Z,4.8
2017-04-30T04:34:00.712Z,4.86
2017-04-30T04:35:00.719Z,4.86
2017-04-30T04:36:00.748Z,4.8
2017-04-30T04:37:00.773Z,4.79
2017-04-30T04:38:01.120Z,4.89
2017-04-30T04:39:01.157Z,4.88
2017-04-30T04:40:01.181Z,4.86
2017-04-30T04:41:00.900Z,4.91
2017-04-30T04:42:01.243Z,4.88
2017-04-30T04:43:00.973Z,4.92
2017-04-30T04:44:01.310Z,5.01
2017-04-30T04:45:01.037Z,4.99
2017-04-30T04:46:01.370Z,5.09
2017-04-30T04:47:01.096Z,5.16
2017-04-30T04:48:01.782Z,5.3
2017-04-30T04:49:01.475Z,5.46
2017-04-30T04:50:01.501Z,5.86
2017-04-30T04:51:01.222Z,6.14
2017-04-30T04:52:01.264Z,6.62
2017-04-30T04:53:01.600Z,6.89
2017-04-30T04:54:01.677Z,7.04
2017-04-30T04:55:01.366Z,7.07
2017-04-30T04:56:01.387Z,7.01
2017-04-30T04:57:01.431Z,7.09
2017-04-30T04:58:01.766Z,7.15
2017-04-30T04:59:01.492Z,7.45
2017-04-30T05:00:01.836Z,7.77
2017-04-30T05:01:01.557Z,7.75
2017-04-30T05:02:01.902Z,7.85
2017-04-30T05:03:01.623Z,7.63
2017-04-30T05:04:01.659Z,7.45
2017-04-30T05:05:01.997Z,7.26
2017-04-30T05:06:01.725Z,7.22
2017-04-30T05:07:01.754Z,7.12
2017-04-30T05:08:01.789Z,7.05
2017-04-30T05:09:01.831Z,7.04
2017-04-30T05:10:01.861Z,6.97
2017-04-30T05:11:01.893Z,7.04
2017-04-30T05:12:01.922Z,7.02
2017-04-30T05:13:01.963Z,6.9
2017-04-30T05:14:02.308Z,6.84
2017-04-30T05:15:02.332Z,6.72
2017-04-30T05:16:02.063Z,7.04
2017-04-30T05:17:02.406Z,7.23
2017-04-30T05:18:02.131Z,7.53
2017-04-30T05:19:02.469Z,7.81
2017-04-30T05:20:02.497Z,8.07
2017-04-30T05:21:02.235Z,8.17
2017-04-30T05:22:02.369Z,8.53
2017-04-30T05:23:02.294Z,8.76
2017-04-30T05:24:02.632Z,9.13
2017-04-30T05:25:02.683Z,9.64
2017-04-30T05:26:02.396Z,10.44
2017-04-30T05:27:02.432Z,11.31
2017-04-30T05:28:02.464Z,12.02
2017-04-30T05:29:02.812Z,13.03
2017-04-30T05:30:02.534Z,13.61
2017-04-30T05:31:02.873Z,14.12
2017-04-30T05:32:02.608Z,14.68
2017-04-30T05:33:02.647Z,15.15
2017-04-30T05:34:02.687Z,15.72
2017-04-30T05:35:02.710Z,16.2
2017-04-30T05:36:02.755Z,16.86
2017-04-30T05:37:02.789Z,17.36
2017-04-30T05:38:02.831Z,17.88
2017-04-30T05:39:02.873Z,18.28
2017-04-30T05:40:02.909Z,18.61
2017-04-30T05:41:03.257Z,19.15
2017-04-30T05:42:02.985Z,19.43
2017-04-30T05:43:03.019Z,19.84
2017-04-30T05:44:03.071Z,20.2
2017-04-30T05:45:03.102Z,20.59
2017-04-30T05:46:03.145Z,20.95
2017-04-30T05:47:03.184Z,21.24
2017-04-30T05:48:03.237Z,21.56
2017-04-30T05:49:03.574Z,21.83
2017-04-30T05:50:03.622Z,22.19
2017-04-30T05:51:03.351Z,22.39
2017-04-30T05:52:03.393Z,22.54
2017-04-30T05:53:03.434Z,22.6
2017-04-30T05:54:03.784Z,22.77
2017-04-30T05:55:04.137Z,22.8
2017-04-30T05:56:03.561Z,22.75
2017-04-30T05:57:03.606Z,22.77
2017-04-30T05:58:03.960Z,22.96
2017-04-30T05:59:03.695Z,22.94
2017-04-30T06:00:03.736Z,23.12
2017-04-30T06:01:04.083Z,23.2
2017-04-30T06:02:03.823Z,23.22
2017-04-30T06:03:04.046Z,23.52
2017-04-30T06:04:04.229Z,23.65
2017-04-30T06:05:03.958Z,24.01
2017-04-30T06:06:04.311Z,24.35
2017-04-30T06:07:04.354Z,24.52
2017-04-30T06:08:04.396Z,24.6
2017-04-30T06:09:04.130Z,24.73
2017-04-30T06:10:04.500Z,25.01
2017-04-30T06:11:04.531Z,25.07
2017-04-30T06:12:04.587Z,25.2
2017-04-30T06:13:04.617Z,25.35
2017-04-30T06:14:04.369Z,25.59
2017-04-30T06:15:04.408Z,25.77
2017-04-30T06:16:04.762Z,25.84
2017-04-30T06:17:04.495Z,26.08
2017-04-30T06:18:04.868Z,26.18
2017-04-30T06:19:04.590Z,26.4
2017-04-30T06:20:04.638Z,26.65
2017-04-30T06:21:04.682Z,26.87
2017-04-30T06:22:04.729Z,27.11
2017-04-30T06:23:05.081Z,27.35
2017-04-30T06:24:04.823Z,27.24
2017-04-30T06:25:04.909Z,27.5
2017-04-30T06:26:05.226Z,27.62
2017-04-30T06:27:04.969Z,27.74
2017-04-30T06:28:05.012Z,27.88
2017-04-30T06:29:05.059Z,27.92
2017-04-30T06:30:05.416Z,28.09
2017-04-30T06:31:05.167Z,28.19
2017-04-30T06:32:05.520Z,28.38
2017-04-30T06:33:05.560Z,28.4
2017-04-30T06:34:05.609Z,28.38
2017-04-30T06:35:05.349Z,28.32
2017-04-30T06:36:05.705Z,28.35
2017-04-30T06:37:05.442Z,28.33
2017-04-30T06:38:05.802Z,28.41
2017-04-30T06:39:05.844Z,28.47
2017-04-30T06:40:05.591Z,28.53
2017-04-30T06:41:05.943Z,28.69
2017-04-30T06:42:05.709Z,28.85
2017-04-30T06:43:05.733Z,28.96
2017-04-30T06:44:06.086Z,29.03
2017-04-30T06:45:05.837Z,28.97
2017-04-30T06:46:05.882Z,29
2017-04-30T06:47:05.938Z,29.06
2017-04-30T06:48:06.299Z,29.16
2017-04-30T06:49:06.343Z,29.13
2017-04-30T06:50:06.081Z,29.16
2017-04-30T06:51:06.447Z,29.41
2017-04-30T06:52:06.488Z,29.57
2017-04-30T06:53:06.228Z,29.75
2017-04-30T06:54:06.275Z,29.92
2017-04-30T06:55:06.327Z,29.99
2017-04-30T06:56:06.370Z,30.02
2017-04-30T06:57:06.421Z,29.87
2017-04-30T06:58:06.786Z,29.59
2017-04-30T06:59:06.526Z,29.49
2017-04-30T07:00:06.580Z,29.38
2017-04-30T07:01:06.621Z,29.62
2017-04-30T07:02:06.674Z,29.75
2017-04-30T07:03:06.724Z,30
2017-04-30T07:04:06.777Z,30.21
2017-04-30T07:05:06.827Z,30.33
2017-04-30T07:06:06.874Z,30.36
2017-04-30T07:07:07.234Z,30.45
2017-04-30T07:08:06.977Z,30.3
2017-04-30T07:09:07.022Z,30.37
2017-04-30T07:10:07.071Z,30.36
2017-04-30T07:11:07.439Z,30.37
2017-04-30T07:12:07.173Z,30.43
2017-04-30T07:13:07.537Z,30.31
2017-04-30T07:14:07.276Z,30.4
2017-04-30T07:15:07.641Z,30.49
2017-04-30T07:16:07.380Z,30.46
2017-04-30T07:17:07.742Z,30.47
2017-04-30T07:18:07.482Z,30.14
2017-04-30T07:19:07.842Z,30.12
2017-04-30T07:20:07.582Z,30.12
2017-04-30T07:21:07.636Z,30.12
2017-04-30T07:22:07.691Z,30.15
2017-04-30T07:23:08.047Z,30.45
2017-04-30T07:24:07.795Z,30.72
2017-04-30T07:25:07.844Z,30.99
2017-04-30T07:26:07.894Z,31.13
2017-04-30T07:27:08.253Z,31.17
2017-04-30T07:28:08.026Z,30.98
2017-04-30T07:29:08.047Z,30.9
2017-04-30T07:30:08.099Z,30.71
2017-04-30T07:31:08.154Z,30.5
2017-04-30T07:32:08.203Z,30.3
2017-04-30T07:33:08.562Z,30.16
2017-04-30T07:34:08.620Z,30.11
2017-04-30T07:35:08.351Z,30.15
2017-04-30T07:36:08.411Z,30.45
2017-04-30T07:37:09.094Z,30.69
2017-04-30T07:38:08.513Z,31.13
2017-04-30T07:39:08.870Z,31.61
2017-04-30T07:40:08.613Z,31.8
2017-04-30T07:41:08.668Z,32.25
2017-04-30T07:42:08.721Z,32.48
2017-04-30T07:43:08.774Z,32.62
2017-04-30T07:44:09.142Z,32.71
2017-04-30T07:45:08.883Z,32.61
2017-04-30T07:46:08.933Z,32.51
2017-04-30T07:47:08.983Z,32.42
2017-04-30T07:48:09.036Z,32.36
2017-04-30T07:49:09.119Z,32.42
2017-04-30T07:50:09.145Z,32.27
2017-04-30T07:51:09.195Z,31.87
2017-04-30T07:52:09.561Z,31.5
2017-04-30T07:53:09.618Z,31.27
2017-04-30T07:54:09.356Z,31.01
2017-04-30T07:55:09.402Z,30.67
2017-04-30T07:56:09.460Z,30.29
2017-04-30T07:57:09.521Z,29.94
2017-04-30T07:58:09.559Z,29.59
2017-04-30T07:59:09.620Z,29.45
2017-04-30T08:00:09.668Z,29.43
2017-04-30T08:01:09.724Z,29.33
2017-04-30T08:02:09.775Z,29.1
2017-04-30T08:03:10.144Z,28.84
2017-04-30T08:04:09.880Z,28.54
2017-04-30T08:05:09.934Z,28.46
2017-04-30T08:06:09.979Z,28.07
2017-04-30T08:07:10.035Z,27.95
2017-04-30T08:08:10.391Z,27.7
2017-04-30T08:09:10.450Z,27.54
2017-04-30T08:10:10.189Z,27.58
2017-04-30T08:11:10.552Z,27.8
2017-04-30T08:12:10.604Z,28.21
2017-04-30T08:13:10.350Z,28.48
2017-04-30T08:14:10.704Z,28.78
2017-04-30T08:15:10.452Z,29.13
2017-04-30T08:16:10.505Z,29.28
2017-04-30T08:17:10.554Z,29.43
2017-04-30T08:18:10.607Z,29.49
2017-04-30T08:19:10.655Z,29.52
2017-04-30T08:20:11.014Z,29.65
2017-04-30T08:21:10.761Z,29.65
2017-04-30T08:22:11.126Z,29.5
2017-04-30T08:23:11.180Z,29.2
2017-04-30T08:24:11.231Z,28.97
2017-04-30T08:25:10.970Z,28.84
2017-04-30T08:26:11.022Z,28.88
2017-04-30T08:27:11.384Z,29.15
2017-04-30T08:28:11.748Z,29.34
2017-04-30T08:29:11.406Z,29.57
2017-04-30T08:30:11.546Z,29.87
2017-04-30T08:31:11.291Z,30.12
2017-04-30T08:32:11.337Z,30.46
2017-04-30T08:33:11.395Z,30.68
2017-04-30T08:34:11.756Z,30.8
2017-04-30T08:35:11.500Z,30.89
2017-04-30T08:36:11.547Z,31.08
2017-04-30T08:37:11.913Z,31.01
2017-04-30T08:38:11.655Z,30.94
2017-04-30T08:39:12.020Z,30.9
2017-04-30T08:40:11.766Z,30.83
2017-04-30T08:41:11.820Z,30.56
2017-04-30T08:42:12.175Z,30.37
2017-04-30T08:43:12.236Z,30.38
2017-04-30T08:44:12.012Z,30.33
2017-04-30T08:45:12.336Z,30.14
2017-04-30T08:46:12.080Z,30.21
2017-04-30T08:47:12.135Z,30.38
2017-04-30T08:48:12.493Z,30.37
2017-04-30T08:49:12.248Z,30.16
2017-04-30T08:50:12.298Z,29.99
2017-04-30T08:51:12.347Z,29.41
2017-04-30T08:52:12.406Z,29.11
2017-04-30T08:53:12.463Z,28.21
2017-04-30T08:54:12.821Z,27.62
2017-04-30T08:55:12.562Z,27.46
2017-04-30T08:56:12.924Z,27.28
2017-04-30T08:57:12.668Z,27.24
2017-04-30T08:58:12.726Z,27.1
2017-04-30T08:59:12.775Z,27.24
2017-04-30T09:00:13.137Z,27.28
2017-04-30T09:01:12.878Z,27.47
2017-04-30T09:02:12.929Z,27.28
2017-04-30T09:03:12.980Z,27.17
2017-04-30T09:04:13.038Z,26.83
2017-04-30T09:05:13.085Z,26.59
2017-04-30T09:06:13.147Z,26.43
2017-04-30T09:07:13.204Z,26.5
2017-04-30T09:08:13.565Z,26.47
2017-04-30T09:09:13.615Z,26.59
2017-04-30T09:10:13.353Z,26.83
2017-04-30T09:11:13.401Z,27.17
2017-04-30T09:12:13.466Z,27.36
2017-04-30T09:13:13.514Z,27.17
2017-04-30T09:14:13.560Z,26.83
2017-04-30T09:15:13.619Z,26.12
2017-04-30T09:16:13.666Z,25.83
2017-04-30T09:17:13.725Z,25.49
2017-04-30T09:18:14.080Z,25.61
2017-04-30T09:19:13.832Z,25.77
2017-04-30T09:20:13.883Z,25.82
2017-04-30T09:21:14.240Z,25.99
2017-04-30T09:22:14.295Z,26.02
2017-04-30T09:23:14.039Z,26.09
2017-04-30T09:24:14.092Z,25.94
2017-04-30T09:25:14.450Z,25.86
2017-04-30T09:26:14.194Z,25.89
2017-04-30T09:27:14.251Z,25.84
2017-04-30T09:28:14.623Z,25.91
2017-04-30T09:29:14.667Z,26.09
2017-04-30T09:30:14.406Z,26.09
2017-04-30T09:31:14.465Z,25.89
2017-04-30T09:32:14.513Z,25.9
2017-04-30T09:33:14.565Z,25.77
2017-04-30T09:34:14.617Z,25.37
2017-04-30T09:35:14.668Z,25.05
2017-04-30T09:36:14.724Z,24.77
2017-04-30T09:37:14.774Z,24.57
2017-04-30T09:38:15.142Z,24.38
2017-04-30T09:39:14.882Z,24.37
2017-04-30T09:40:14.930Z,24.42
2017-04-30T09:41:14.985Z,24.41
2017-04-30T09:42:15.386Z,24.14
2017-04-30T09:43:15.097Z,23.95
2017-04-30T09:44:15.459Z,23.6
2017-04-30T09:45:15.201Z,23.42
2017-04-30T09:46:15.255Z,23.22
2017-04-30T09:47:15.321Z,22.72
2017-04-30T09:48:15.358Z,22.29
2017-04-30T09:49:15.419Z,21.79
2017-04-30T09:50:15.474Z,21.48
2017-04-30T09:51:15.513Z,21.42
2017-04-30T09:52:15.566Z,21.36
2017-04-30T09:53:15.626Z,21.09
2017-04-30T09:54:15.980Z,20.68
2017-04-30T09:55:15.728Z,20.21
2017-04-30T09:56:16.090Z,19.75
2017-04-30T09:57:15.829Z,19.7
2017-04-30T09:58:16.197Z,19.9
2017-04-30T09:59:15.931Z,20.06
2017-04-30T10:00:16.291Z,20.16
2017-04-30T10:01:16.038Z,20.35
2017-04-30T10:02:16.090Z,20.39
2017-04-30T10:03:16.149Z,20.56
2017-04-30T10:04:16.197Z,20.61
2017-04-30T10:05:16.241Z,20.71
2017-04-30T10:06:16.307Z,21.05
2017-04-30T10:07:16.349Z,21.23
2017-04-30T10:08:16.710Z,21.42
2017-04-30T10:09:17.070Z,21.74
2017-04-30T10:10:16.507Z,21.88
2017-04-30T10:11:16.556Z,21.83
2017-04-30T10:12:16.620Z,21.71
2017-04-30T10:13:16.671Z,21.21
2017-04-30T10:14:16.721Z,20.61
2017-04-30T10:15:16.766Z,20.16
2017-04-30T10:16:16.826Z,20.08
2017-04-30T10:17:16.876Z,19.75
2017-04-30T10:18:17.239Z,19.5
2017-04-30T10:19:16.992Z,19.42
2017-04-30T10:20:17.350Z,19.31
2017-04-30T10:21:17.088Z,19.48
2017-04-30T10:22:17.137Z,19.54
2017-04-30T10:23:17.188Z,19.28
2017-04-30T10:24:17.240Z,19.23
2017-04-30T10:25:17.291Z,19.31
2017-04-30T10:26:17.655Z,19.33
2017-04-30T10:27:17.399Z,19.17
2017-04-30T10:28:17.760Z,18.95
2017-04-30T10:29:17.809Z,18.87
2017-04-30T10:30:17.559Z,18.8
2017-04-30T10:31:17.910Z,18.67
2017-04-30T10:32:17.970Z,18.68
2017-04-30T10:33:17.716Z,18.72
2017-04-30T10:34:17.761Z,18.82
2017-04-30T10:35:17.820Z,19.13
2017-04-30T10:36:17.867Z,19.18
2017-04-30T10:37:17.930Z,19.1
2017-04-30T10:38:17.969Z,19.11
2017-04-30T10:39:18.019Z,18.99
2017-04-30T10:40:18.072Z,18.95
2017-04-30T10:41:18.121Z,18.68
2017-04-30T10:42:18.178Z,18.43
2017-04-30T10:43:18.224Z,18.15
2017-04-30T10:44:18.278Z,18.02
2017-04-30T10:45:18.327Z,17.73
2017-04-30T10:46:18.685Z,17.63
2017-04-30T10:47:18.430Z,17.55
2017-04-30T10:48:18.794Z,17.53
2017-04-30T10:49:18.844Z,17.7
2017-04-30T10:50:18.584Z,17.82
2017-04-30T10:51:18.639Z,17.89
2017-04-30T10:52:18.688Z,17.99
2017-04-30T10:53:18.742Z,18
2017-04-30T10:54:18.805Z,17.94
2017-04-30T10:55:18.838Z,17.91
2017-04-30T10:56:18.893Z,17.97
2017-04-30T10:57:18.942Z,18.07
2017-04-30T10:58:18.993Z,18.28
2017-04-30T10:59:19.045Z,18.33
2017-04-30T11:00:19.097Z,18.36
2017-04-30T11:01:19.454Z,18.49
2017-04-30T11:02:19.194Z,18.46
2017-04-30T11:03:19.246Z,18.62
2017-04-30T11:04:19.603Z,18.49
2017-04-30T11:05:19.345Z,18.49
2017-04-30T11:06:19.401Z,18.46
2017-04-30T11:07:19.760Z,18.4
2017-04-30T11:08:19.494Z,18.44
2017-04-30T11:09:19.547Z,18.49
2017-04-30T11:10:19.599Z,18.46
2017-04-30T11:11:19.647Z,18.5
2017-04-30T11:12:19.695Z,18.61
2017-04-30T11:13:20.054Z,18.67
2017-04-30T11:14:20.097Z,18.67
2017-04-30T11:15:19.841Z,18.68
2017-04-30T11:16:19.896Z,18.46
2017-04-30T11:17:19.931Z,18.37
2017-04-30T11:18:20.297Z,18.21
2017-04-30T11:19:20.338Z,18.12
2017-04-30T11:20:20.386Z,17.94
2017-04-30T11:21:20.128Z,18
2017-04-30T11:22:20.480Z,18
2017-04-30T11:23:20.529Z,17.84
2017-04-30T11:24:20.572Z,17.63
2017-04-30T11:25:20.319Z,17.57
2017-04-30T11:26:20.661Z,17.53
2017-04-30T11:27:20.414Z,17.48
2017-04-30T11:28:20.459Z,17.35
2017-04-30T11:29:20.813Z,17.36
2017-04-30T11:30:20.543Z,17.2
2017-04-30T11:31:20.595Z,17.25
2017-04-30T11:32:20.947Z,17.26
2017-04-30T11:33:20.676Z,17.22
2017-04-30T11:34:21.034Z,17.18
2017-04-30T11:35:21.075Z,17.25
2017-04-30T11:36:21.122Z,17.18
2017-04-30T11:37:20.847Z,17.17
2017-04-30T11:38:20.899Z,17.06
2017-04-30T11:39:21.254Z,17
2017-04-30T11:40:20.981Z,16.98
2017-04-30T11:41:21.338Z,16.98
2017-04-30T11:42:21.384Z,17
2017-04-30T11:43:21.429Z,16.99
2017-04-30T11:44:21.154Z,17.11
2017-04-30T11:45:21.213Z,17.17
2017-04-30T11:46:21.546Z,17.22
2017-04-30T11:47:21.591Z,17.15
2017-04-30T11:48:21.322Z,17.11
2017-04-30T11:49:21.673Z,17.06
2017-04-30T11:50:21.412Z,16.95
2017-04-30T11:51:21.763Z,16.86
2017-04-30T11:52:21.795Z,16.59
2017-04-30T11:53:21.547Z,16.35
2017-04-30T11:54:21.878Z,16.22
2017-04-30T11:55:21.615Z,16.18
2017-04-30T11:56:21.675Z,16.03
2017-04-30T11:57:21.699Z,16.03
2017-04-30T11:58:21.738Z,16.04
2017-04-30T11:59:22.086Z,15.99
2017-04-30T12:00:22.126Z,16.01
2017-04-30T12:01:21.863Z,16
2017-04-30T12:02:21.901Z,15.99
2017-04-30T12:03:21.941Z,16.01
2017-04-30T12:04:21.983Z,15.88
2017-04-30T12:05:22.027Z,15.89
2017-04-30T12:06:22.064Z,16
2017-04-30T12:07:22.105Z,15.93
2017-04-30T12:08:22.459Z,15.99
2017-04-30T12:09:22.193Z,15.96
2017-04-30T12:10:22.227Z,16.01
2017-04-30T12:11:22.269Z,15.97
2017-04-30T12:12:22.327Z,15.96
2017-04-30T12:13:22.345Z,15.81
2017-04-30T12:14:22.392Z,15.94
2017-04-30T12:15:22.426Z,15.96
2017-04-30T12:16:22.777Z,16
2017-04-30T12:17:22.818Z,16.03
2017-04-30T12:18:22.552Z,16.04
2017-04-30T12:19:22.900Z,16.11
2017-04-30T12:20:22.630Z,16.12
2017-04-30T12:21:22.671Z,16.16
2017-04-30T12:22:22.712Z,16.2
2017-04-30T12:23:22.755Z,16.26
2017-04-30T12:24:22.790Z,16.33
2017-04-30T12:25:22.831Z,16.48
2017-04-30T12:26:23.190Z,16.5
2017-04-30T12:27:22.918Z,16.41
2017-04-30T12:28:22.953Z,16.34
2017-04-30T12:29:23.308Z,16.25
2017-04-30T12:30:23.035Z,16.16
2017-04-30T12:31:23.073Z,16.14
2017-04-30T12:32:23.427Z,16.14
2017-04-30T12:33:23.152Z,16.12
2017-04-30T12:34:23.197Z,16.22
2017-04-30T12:35:23.229Z,16.15
2017-04-30T12:36:23.274Z,16.15
2017-04-30T12:37:23.630Z,16.16
2017-04-30T12:38:23.664Z,16.15
2017-04-30T12:39:23.742Z,16.26
2017-04-30T12:40:23.442Z,16.22
2017-04-30T12:41:23.479Z,16.16
2017-04-30T12:42:23.523Z,16.18
2017-04-30T12:43:23.860Z,16.15
2017-04-30T12:44:23.594Z,16.04
2017-04-30T12:45:23.642Z,16.04
2017-04-30T12:46:23.673Z,15.85
2017-04-30T12:47:23.722Z,15.74
2017-04-30T12:48:24.068Z,15.7
2017-04-30T12:49:23.797Z,15.74
2017-04-30T12:50:24.143Z,15.86
2017-04-30T12:51:23.874Z,15.94
2017-04-30T12:52:23.921Z,15.93
2017-04-30T12:53:23.958Z,16
2017-04-30T12:54:24.001Z,16
2017-04-30T12:55:24.041Z,16
2017-04-30T12:56:24.079Z,16.03
2017-04-30T12:57:24.426Z,16.06
2017-04-30T12:58:24.464Z,15.86
2017-04-30T12:59:24.198Z,15.82
2017-04-30T13:00:24.240Z,15.75
2017-04-30T13:01:24.587Z,15.64
2017-04-30T13:02:24.312Z,15.59
2017-04-30T13:03:24.659Z,15.59
2017-04-30T13:04:24.704Z,15.59
2017-04-30T13:05:24.430Z,15.61
2017-04-30T13:06:24.782Z,15.68
2017-04-30T13:07:24.823Z,15.79